createdAt,value
2019-02-09T00:02:24.040Z,75.00
2019-02-09T00:04:54.978Z,84.87
2019-02-09T00:07:27.759Z,80.90
2019-02-09T00:09:58.401Z,80.20
2019-02-09T00:12:29.829Z,75.00
2019-02-09T00:15:01.058Z,70.00
2019-02-09T00:17:32.358Z,74.93
2019-02-09T00:20:02.990Z,78.10
2019-02-09T00:22:33.720Z,70.10
2019-02-09T00:25:04.719Z,74.00
2019-02-09T00:27:35.439Z,78.00
2019-02-09T00:30:08.875Z,73.70
2019-02-09T00:32:39.819Z,76.33
2019-02-09T00:35:11.749Z,73.53
2019-02-09T00:37:42.519Z,71.80
2019-02-09T00:40:13.639Z,70.13
2019-02-09T00:42:44.220Z,66.27
2019-02-09T00:45:16.920Z,73.77
2019-02-09T00:47:47.999Z,76.93
2019-02-09T00:50:19.682Z,65.50
2019-02-09T00:52:50.419Z,63.57
2019-02-09T00:55:22.130Z,60.93
2019-02-09T00:57:52.780Z,63.17
2019-02-09T01:00:25.035Z,57.37
2019-02-09T01:02:55.800Z,55.90
2019-02-09T01:05:31.500Z,39.97
2019-02-09T01:08:02.238Z,57.83
2019-02-09T01:10:33.590Z,56.70
2019-02-09T01:13:04.825Z,51.87
2019-02-09T01:15:36.290Z,47.20
2019-02-09T01:18:07.625Z,47.23
2019-02-09T01:20:38.599Z,50.60
2019-02-09T01:23:10.099Z,43.07
2019-02-09T01:25:41.200Z,44.03
2019-02-09T01:28:12.014Z,46.40
2019-02-09T01:30:42.770Z,42.73
2019-02-09T01:33:13.545Z,39.87
2019-02-09T01:35:44.380Z,44.67
2019-02-09T01:38:15.079Z,47.93
2019-02-09T01:40:45.771Z,37.50
2019-02-09T01:43:16.393Z,41.17
2019-02-09T01:45:47.032Z,37.13
2019-02-09T01:48:18.129Z,37.10
2019-02-09T01:50:49.605Z,36.27
2019-02-09T01:53:20.750Z,34.73
2019-02-09T01:55:51.690Z,35.70
2019-02-09T01:58:22.934Z,35.83
2019-02-09T02:00:53.742Z,29.97
2019-02-09T02:03:24.439Z,22.23
2019-02-09T02:05:55.280Z,27.27
2019-02-09T02:08:26.142Z,31.27
2019-02-09T02:10:56.975Z,24.37
2019-02-09T02:13:29.118Z,34.80
2019-02-09T02:15:59.830Z,30.97
2019-02-09T02:18:30.511Z,26.10
2019-02-09T02:21:01.359Z,26.63
2019-02-09T02:23:32.122Z,39.70
2019-02-09T02:26:02.950Z,33.57
2019-02-09T02:28:33.658Z,33.97
2019-02-09T02:31:04.438Z,34.37
2019-02-09T02:33:35.098Z,40.07
2019-02-09T02:36:06.219Z,36.83
2019-02-09T02:38:37.126Z,39.90
2019-02-09T02:41:07.839Z,34.73
2019-02-09T02:43:38.656Z,36.70
2019-02-09T02:46:10.934Z,38.87
2019-02-09T02:48:41.659Z,42.73
2019-02-09T02:51:12.479Z,44.43
2019-02-09T02:53:43.258Z,41.40
2019-02-09T02:56:14.080Z,38.07
2019-02-09T02:58:44.760Z,37.20
2019-02-09T03:01:15.579Z,39.87
2019-02-09T03:03:46.343Z,46.33
2019-02-09T03:06:16.987Z,53.00
2019-02-09T03:08:47.610Z,50.77
2019-02-09T03:11:18.478Z,53.23
2019-02-09T03:13:49.140Z,50.03
2019-02-09T03:16:19.911Z,55.83
2019-02-09T03:18:50.996Z,56.40
2019-02-09T03:21:21.791Z,52.70
2019-02-09T03:23:52.540Z,48.73
2019-02-09T03:26:23.239Z,53.03
2019-02-09T03:28:53.960Z,55.03
2019-02-09T03:31:24.721Z,52.40
2019-02-09T03:33:55.418Z,57.03
2019-02-09T03:36:26.201Z,56.00
2019-02-09T03:38:56.899Z,45.47
2019-02-09T03:41:27.579Z,52.53
2019-02-09T03:43:58.399Z,48.90
2019-02-09T03:46:29.071Z,49.80
2019-02-09T03:48:59.740Z,51.73
2019-02-09T03:51:30.439Z,49.90
2019-02-09T03:54:01.550Z,43.43
2019-02-09T03:56:32.299Z,47.00
2019-02-09T03:59:03.171Z,46.70
2019-02-09T04:01:34.004Z,39.30
2019-02-09T04:04:04.973Z,41.80
2019-02-09T04:06:35.730Z,47.87
2019-02-09T04:09:09.615Z,41.20
2019-02-09T04:11:40.390Z,46.90
2019-02-09T04:14:11.151Z,44.30
2019-02-09T04:16:41.820Z,34.73
2019-02-09T04:19:12.682Z,35.73
2019-02-09T04:21:46.618Z,35.93
2019-02-09T04:24:17.476Z,35.80
2019-02-09T04:26:48.211Z,46.47
2019-02-09T04:29:18.859Z,36.50
2019-02-09T04:31:49.860Z,43.90
2019-02-09T04:34:20.393Z,46.30
2019-02-09T04:36:51.120Z,55.20
2019-02-09T04:39:21.988Z,48.50
2019-02-09T04:41:52.681Z,52.43
2019-02-09T04:44:23.460Z,53.43
2019-02-09T04:46:54.240Z,54.17
2019-02-09T04:49:25.072Z,53.80
2019-02-09T04:51:55.878Z,53.00
2019-02-09T04:54:26.700Z,46.77
2019-02-09T04:56:57.580Z,50.10
2019-02-09T04:59:28.239Z,53.13
2019-02-09T05:01:59.459Z,40.57
2019-02-09T05:04:30.281Z,40.00
2019-02-09T05:07:01.401Z,33.70
2019-02-09T05:09:32.240Z,49.57
2019-02-09T05:12:02.920Z,55.63
2019-02-09T05:14:33.735Z,52.07
2019-02-09T05:17:04.490Z,47.73
2019-02-09T05:19:35.239Z,51.40
2019-02-09T05:22:06.101Z,48.50
2019-02-09T05:24:36.906Z,48.10
2019-02-09T05:27:07.877Z,42.17
2019-02-09T05:29:38.601Z,48.37
2019-02-09T05:32:09.379Z,39.00
2019-02-09T05:34:40.091Z,48.70
2019-02-09T05:37:10.839Z,32.83
2019-02-09T05:39:41.599Z,43.13
2019-02-09T05:42:12.444Z,38.37
2019-02-09T05:44:43.190Z,43.53
2019-02-09T05:47:13.839Z,38.20
2019-02-09T05:49:44.678Z,40.27
2019-02-09T05:52:15.497Z,42.37
2019-02-09T05:54:46.300Z,36.23
2019-02-09T05:57:17.022Z,43.87
2019-02-09T05:59:47.755Z,34.20
2019-02-09T06:02:18.679Z,51.63
2019-02-09T06:04:49.361Z,46.33
2019-02-09T06:07:20.116Z,50.03
2019-02-09T06:09:50.755Z,38.40
2019-02-09T06:12:21.436Z,35.07
2019-02-09T06:14:52.921Z,37.57
2019-02-09T06:17:23.676Z,40.93
2019-02-09T06:19:54.375Z,40.83
2019-02-09T06:22:25.099Z,42.63
2019-02-09T06:24:55.839Z,47.57
2019-02-09T06:27:26.603Z,42.30
2019-02-09T06:29:57.435Z,41.53
2019-02-09T06:32:27.975Z,33.93
2019-02-09T06:34:59.098Z,29.80
2019-02-09T06:37:29.759Z,36.37
2019-02-09T06:40:00.383Z,36.67
2019-02-09T06:42:31.095Z,37.83
2019-02-09T06:45:01.892Z,35.00
2019-02-09T06:47:32.504Z,32.37
2019-02-09T06:50:02.935Z,31.13
2019-02-09T06:52:33.838Z,30.77
2019-02-09T06:55:05.365Z,31.23
2019-02-09T06:57:37.636Z,30.93
2019-02-09T07:00:13.042Z,24.17
2019-02-09T07:02:43.528Z,26.63
2019-02-09T07:05:17.934Z,28.13
2019-02-09T07:07:48.918Z,28.57
2019-02-09T07:10:22.689Z,32.03
2019-02-09T07:12:53.319Z,24.90
2019-02-09T07:15:27.389Z,26.17
2019-02-09T07:17:58.263Z,25.57
2019-02-09T07:20:28.891Z,29.70
2019-02-09T07:22:59.942Z,29.20
2019-02-09T07:25:30.499Z,27.70
2019-02-09T07:28:12.163Z,29.67
2019-02-09T07:30:43.209Z,28.90
2019-02-09T07:33:14.040Z,22.23
2019-02-09T07:35:44.710Z,28.20
2019-02-09T07:38:15.452Z,24.30
2019-02-09T07:40:46.071Z,30.33
2019-02-09T07:43:16.979Z,28.33
2019-02-09T07:45:47.559Z,29.37
2019-02-09T07:48:18.136Z,26.60
2019-02-09T07:50:48.743Z,27.17
2019-02-09T07:53:19.320Z,24.50
2019-02-09T07:55:50.472Z,25.03
2019-02-09T07:58:20.994Z,26.83
2019-02-09T08:00:51.581Z,27.47
2019-02-09T08:03:22.242Z,26.43
2019-02-09T08:05:52.735Z,28.10
2019-02-09T08:08:23.410Z,28.23
2019-02-09T08:10:54.031Z,28.07
2019-02-09T08:13:24.684Z,28.37
2019-02-09T08:15:55.345Z,31.53
2019-02-09T08:18:26.060Z,29.87
2019-02-09T08:20:56.688Z,26.73
2019-02-09T08:23:27.264Z,25.60
2019-02-09T08:25:57.831Z,32.00
2019-02-09T08:28:28.374Z,30.73
2019-02-09T08:30:58.919Z,30.63
2019-02-09T08:33:29.709Z,29.50
2019-02-09T08:36:00.480Z,24.07
2019-02-09T08:38:31.139Z,28.03
2019-02-09T08:41:01.619Z,27.97
2019-02-09T08:43:32.248Z,29.00
2019-02-09T08:46:02.926Z,28.53
2019-02-09T08:48:33.426Z,29.90
2019-02-09T08:51:09.405Z,32.00
2019-02-09T08:53:40.013Z,32.80
2019-02-09T08:56:10.720Z,28.67
2019-02-09T08:58:41.455Z,30.37
2019-02-09T09:01:12.065Z,28.53
2019-02-09T09:03:42.809Z,28.97
2019-02-09T09:06:13.362Z,29.30
2019-02-09T09:08:43.953Z,27.40
2019-02-09T09:11:14.661Z,29.53
2019-02-09T09:13:45.201Z,26.93
2019-02-09T09:16:15.980Z,28.07
2019-02-09T09:18:46.650Z,31.80
2019-02-09T09:21:17.227Z,30.07
2019-02-09T09:23:48.018Z,32.10
2019-02-09T09:26:19.003Z,33.23
2019-02-09T09:28:49.753Z,30.17
2019-02-09T09:31:20.340Z,29.60
2019-02-09T09:33:59.049Z,36.17
2019-02-09T09:36:30.157Z,36.93
2019-02-09T09:39:00.781Z,33.50
2019-02-09T09:41:31.365Z,34.37
2019-02-09T09:44:17.609Z,33.03
2019-02-09T09:46:48.470Z,34.93
2019-02-09T09:49:19.110Z,31.90
2019-02-09T09:51:49.907Z,33.90
2019-02-09T09:54:20.770Z,29.97
2019-02-09T09:56:51.379Z,32.00
2019-02-09T09:59:22.291Z,33.43
2019-02-09T10:01:52.881Z,30.70
2019-02-09T10:04:23.588Z,30.00
2019-02-09T10:06:54.162Z,27.20
2019-02-09T10:09:24.864Z,27.20
2019-02-09T10:12:01.504Z,26.27
2019-02-09T10:14:32.281Z,22.53
2019-02-09T10:17:02.864Z,20.80
2019-02-09T10:19:33.504Z,21.00
2019-02-09T10:22:04.095Z,21.17
2019-02-09T10:24:34.679Z,23.53
2019-02-09T10:27:05.169Z,21.00
2019-02-09T10:29:35.675Z,16.70
2019-02-09T10:32:09.225Z,20.57
2019-02-09T10:34:39.800Z,18.47
2019-02-09T10:37:10.314Z,17.30
2019-02-09T10:39:40.901Z,19.20
2019-02-09T10:42:11.436Z,21.47
2019-02-09T10:44:42.000Z,19.23
2019-02-09T10:47:12.733Z,19.43
2019-02-09T10:49:46.774Z,20.37
2019-02-09T10:52:19.123Z,26.57
2019-02-09T10:54:49.859Z,19.27
2019-02-09T10:57:20.379Z,21.23
2019-02-09T10:59:58.081Z,19.57
2019-02-09T11:02:28.571Z,16.77
2019-02-09T11:04:59.154Z,16.47
2019-02-09T11:07:29.774Z,17.13
2019-02-09T11:10:02.219Z,15.07
2019-02-09T11:12:32.744Z,13.63
2019-02-09T11:15:03.309Z,17.23
2019-02-09T11:17:33.953Z,14.30
2019-02-09T11:20:05.303Z,15.07
2019-02-09T11:22:36.009Z,16.70
2019-02-09T11:25:08.639Z,16.10
2019-02-09T11:27:41.353Z,14.13
2019-02-09T11:30:19.892Z,13.43
2019-02-09T11:32:50.995Z,13.80
2019-02-09T11:35:22.199Z,13.10
2019-02-09T11:38:01.175Z,13.77
2019-02-09T11:40:32.015Z,16.20
2019-02-09T11:43:04.127Z,13.23
2019-02-09T11:45:35.703Z,10.90
2019-02-09T11:48:07.134Z,16.17
2019-02-09T11:50:37.744Z,11.53
2019-02-09T11:53:08.571Z,10.97
2019-02-09T11:55:39.172Z,11.07
2019-02-09T11:58:09.936Z,15.23
2019-02-09T12:00:45.611Z,19.33
2019-02-09T12:03:16.506Z,15.83
2019-02-09T12:05:47.454Z,14.70
2019-02-09T12:08:18.296Z,15.57
2019-02-09T12:10:48.969Z,16.83
2019-02-09T12:13:19.641Z,18.50
2019-02-09T12:15:52.262Z,16.40
2019-02-09T12:18:23.360Z,18.67
2019-02-09T12:20:53.898Z,16.97
2019-02-09T12:23:24.490Z,12.93
2019-02-09T12:26:05.727Z,12.40
2019-02-09T12:28:36.348Z,15.93
2019-02-09T12:31:07.028Z,13.00
2019-02-09T12:33:37.677Z,14.47
2019-02-09T12:36:09.066Z,17.13
2019-02-09T12:38:39.804Z,12.07
2019-02-09T12:41:10.599Z,16.03
2019-02-09T12:43:42.452Z,12.20
2019-02-09T12:46:13.119Z,14.40
2019-02-09T12:48:43.820Z,15.57
2019-02-09T12:51:14.419Z,15.40
2019-02-09T12:53:45.056Z,15.57
2019-02-09T12:56:15.660Z,12.23
2019-02-09T12:58:46.210Z,12.97
2019-02-09T13:01:16.977Z,13.20
2019-02-09T13:03:47.627Z,13.07
2019-02-09T13:06:18.412Z,14.77
2019-02-09T13:08:50.183Z,13.43
2019-02-09T13:11:20.772Z,13.77
2019-02-09T13:14:00.086Z,16.17
2019-02-09T13:16:30.727Z,14.13
2019-02-09T13:19:01.355Z,13.10
2019-02-09T13:21:31.970Z,15.10
2019-02-09T13:24:02.520Z,15.27
2019-02-09T13:26:33.107Z,13.20
2019-02-09T13:29:03.632Z,13.60
2019-02-09T13:31:34.280Z,16.60
2019-02-09T13:34:04.994Z,16.60
2019-02-09T13:36:35.605Z,14.17
2019-02-09T13:39:09.228Z,12.13
2019-02-09T13:41:39.885Z,13.43
2019-02-09T13:44:10.508Z,14.87
2019-02-09T13:46:41.177Z,18.43
2019-02-09T13:49:11.695Z,13.67
2019-02-09T13:51:47.801Z,15.10
2019-02-09T13:54:18.335Z,17.17
2019-02-09T13:56:48.864Z,15.90
2019-02-09T13:59:19.442Z,17.77
2019-02-09T14:01:50.420Z,14.87
2019-02-09T14:04:21.250Z,20.87
2019-02-09T14:06:51.891Z,19.33
2019-02-09T14:09:22.611Z,22.83
2019-02-09T14:11:53.544Z,25.43
2019-02-09T14:14:24.270Z,19.37
2019-02-09T14:16:54.960Z,20.73
2019-02-09T14:19:25.724Z,17.87
2019-02-09T14:22:04.396Z,18.03
2019-02-09T14:24:34.949Z,15.70
2019-02-09T14:27:05.591Z,14.97
2019-02-09T14:29:36.182Z,15.47
2019-02-09T14:32:07.343Z,14.67
2019-02-09T14:34:38.075Z,16.30
2019-02-09T14:37:08.624Z,21.20
2019-02-09T14:39:39.231Z,21.80
2019-02-09T14:42:09.825Z,21.43
2019-02-09T14:44:40.346Z,22.87
2019-02-09T14:47:11.000Z,20.73
2019-02-09T14:49:41.609Z,22.70
2019-02-09T14:52:12.247Z,21.60
2019-02-09T14:54:43.291Z,25.10
2019-02-09T14:57:13.849Z,39.60
2019-02-09T14:59:44.390Z,30.47
2019-02-09T15:02:15.021Z,32.50
2019-02-09T15:04:45.700Z,28.77
2019-02-09T15:07:16.390Z,27.77
2019-02-09T15:09:47.145Z,19.87
2019-02-09T15:12:17.673Z,16.90
2019-02-09T15:14:48.391Z,22.27
2019-02-09T15:17:18.900Z,20.67
2019-02-09T15:19:49.451Z,19.60
2019-02-09T15:22:20.130Z,19.33
2019-02-09T15:24:53.861Z,19.60
2019-02-09T15:27:25.558Z,22.17
2019-02-09T15:29:56.383Z,30.30
2019-02-09T15:32:26.959Z,26.83
2019-02-09T15:34:57.624Z,37.57
2019-02-09T15:37:28.220Z,27.63
2019-02-09T15:39:58.830Z,35.30
2019-02-09T15:42:29.522Z,36.07
2019-02-09T15:45:00.257Z,31.63
2019-02-09T15:47:31.016Z,26.13
2019-02-09T15:50:03.107Z,23.23
2019-02-09T15:52:33.851Z,23.90
2019-02-09T15:55:04.606Z,17.53
2019-02-09T15:57:35.242Z,17.43
2019-02-09T16:00:12.827Z,16.77
2019-02-09T16:02:44.776Z,13.53
2019-02-09T16:05:15.665Z,14.60
2019-02-09T16:07:46.230Z,14.60
2019-02-09T16:10:19.160Z,18.87
2019-02-09T16:12:51.108Z,20.97
2019-02-09T16:15:26.896Z,19.17
2019-02-09T16:17:59.415Z,17.00
2019-02-09T16:20:30.546Z,19.73
2019-02-09T16:23:01.179Z,19.60
2019-02-09T16:25:32.991Z,13.80
2019-02-09T16:28:05.724Z,21.50
2019-02-09T16:30:36.471Z,18.27
2019-02-09T16:33:07.350Z,26.63
2019-02-09T16:35:39.275Z,17.63
2019-02-09T16:38:09.999Z,16.97
2019-02-09T16:40:40.661Z,18.77
2019-02-09T16:43:13.706Z,16.87
2019-02-09T16:45:44.766Z,17.87
2019-02-09T16:48:15.841Z,18.00
2019-02-09T16:50:49.405Z,17.07
2019-02-09T16:53:22.625Z,17.70
2019-02-09T16:55:56.817Z,18.33
2019-02-09T16:58:27.428Z,19.40
2019-02-09T17:01:05.283Z,18.57
2019-02-09T17:03:35.115Z,20.17
2019-02-09T17:06:06.106Z,19.07
2019-02-09T17:08:44.114Z,21.07
2019-02-09T17:11:14.737Z,20.17
2019-02-09T17:13:45.268Z,19.87
2019-02-09T17:16:16.247Z,22.03
2019-02-09T17:18:47.012Z,20.20
2019-02-09T17:21:17.804Z,18.07
2019-02-09T17:23:48.562Z,21.03
2019-02-09T17:26:19.293Z,24.83
2019-02-09T17:28:51.037Z,19.90
2019-02-09T17:31:21.693Z,16.27
2019-02-09T17:33:53.891Z,19.40
2019-02-09T17:36:25.662Z,22.80
2019-02-09T17:38:56.399Z,20.50
2019-02-09T17:41:27.128Z,21.13
2019-02-09T17:44:01.287Z,25.57
2019-02-09T17:46:35.142Z,18.17
2019-02-09T17:49:05.781Z,19.60
2019-02-09T17:51:36.566Z,17.30
2019-02-09T17:54:07.310Z,17.27
2019-02-09T17:56:39.999Z,20.90
2019-02-09T17:59:10.439Z,19.97
2019-02-09T18:01:41.158Z,22.63
2019-02-09T18:04:14.583Z,21.33
2019-02-09T18:06:46.210Z,22.20
2019-02-09T18:09:19.014Z,25.90
2019-02-09T18:11:49.510Z,22.80
2019-02-09T18:14:23.430Z,22.13
2019-02-09T18:16:54.018Z,21.07
2019-02-09T18:19:25.904Z,25.73
2019-02-09T18:21:57.648Z,23.23
2019-02-09T18:24:29.346Z,20.63
2019-02-09T18:27:03.834Z,20.53
2019-02-09T18:29:37.641Z,19.63
2019-02-09T18:32:17.087Z,19.63
2019-02-09T18:34:56.819Z,16.87
2019-02-09T18:37:32.562Z,16.87
2019-02-09T18:40:12.569Z,20.47
2019-02-09T18:42:43.157Z,20.83
2019-02-09T18:45:21.652Z,21.70
2019-02-09T18:47:52.328Z,23.43
2019-02-09T18:50:30.534Z,29.73
2019-02-09T18:53:03.747Z,29.97
2019-02-09T18:55:34.339Z,29.03
2019-02-09T18:58:06.275Z,27.33
2019-02-09T19:00:45.619Z,27.67
2019-02-09T19:03:19.129Z,25.93
2019-02-09T19:05:56.502Z,20.60
2019-02-09T19:08:28.363Z,20.07
2019-02-09T19:11:00.489Z,26.33
2019-02-09T19:13:38.326Z,21.00
2019-02-09T19:16:09.314Z,21.43
2019-02-09T19:18:40.021Z,23.43
2019-02-09T19:21:17.971Z,25.07
2019-02-09T19:23:48.815Z,24.60
2019-02-09T19:26:23.685Z,26.40
2019-02-09T19:28:58.984Z,30.00
2019-02-09T19:31:30.028Z,24.73
2019-02-09T19:34:04.738Z,27.23
2019-02-09T19:36:36.579Z,26.33
2019-02-09T19:39:14.257Z,27.07
2019-02-09T19:41:50.124Z,25.53
2019-02-09T19:44:22.029Z,24.10
2019-02-09T19:46:55.867Z,24.17
2019-02-09T19:49:30.984Z,23.33
2019-02-09T19:52:08.370Z,30.90
2019-02-09T19:54:36.472Z,31.00
2019-02-09T19:57:10.175Z,34.85
2019-02-09T19:59:42.594Z,25.00
2019-02-09T20:02:21.056Z,26.60
2019-02-09T20:04:57.108Z,22.40
2019-02-09T20:07:32.067Z,20.87
2019-02-09T20:10:03.546Z,18.03
2019-02-09T20:12:35.727Z,20.10
2019-02-09T20:15:10.179Z,15.40
2019-02-09T20:17:45.363Z,18.43
2019-02-09T20:20:23.160Z,19.07
2019-02-09T20:22:53.826Z,18.60
2019-02-09T20:25:29.290Z,19.80
2019-02-09T20:28:04.294Z,21.30
2019-02-09T20:30:38.931Z,18.87
2019-02-09T20:33:12.117Z,19.27
2019-02-09T20:35:49.925Z,21.23
2019-02-09T20:38:21.812Z,20.07
2019-02-09T20:40:59.281Z,18.03
2019-02-09T20:43:34.321Z,18.67
2019-02-09T20:46:05.304Z,20.87
2019-02-09T20:48:36.160Z,19.67
2019-02-09T20:51:07.052Z,14.87
2019-02-09T20:53:41.300Z,20.37
2019-02-09T20:56:12.491Z,19.50
2019-02-09T20:58:45.322Z,15.83
2019-02-09T21:01:17.099Z,22.23
2019-02-09T21:03:48.962Z,16.70
2019-02-09T21:06:20.148Z,14.83
2019-02-09T21:08:51.101Z,16.23
2019-02-09T21:11:26.342Z,16.83
2019-02-09T21:13:56.877Z,17.70
2019-02-09T21:16:27.486Z,18.47
2019-02-09T21:19:01.265Z,15.67
2019-02-09T21:21:37.845Z,14.33
2019-02-09T21:24:08.496Z,17.53
2019-02-09T21:26:43.417Z,15.67
2019-02-09T21:29:15.200Z,22.30
2019-02-09T21:31:50.039Z,16.90
2019-02-09T21:34:20.740Z,22.93
2019-02-09T21:36:52.512Z,16.90
2019-02-09T21:39:33.726Z,18.17
2019-02-09T21:42:06.113Z,15.03
2019-02-09T21:44:40.048Z,21.17
2019-02-09T21:47:18.903Z,14.20
2019-02-09T21:49:51.980Z,17.43
2019-02-09T21:52:26.905Z,12.27
2019-02-09T21:54:58.586Z,13.97
2019-02-09T21:57:31.995Z,14.57
2019-02-09T22:00:06.643Z,14.73
2019-02-09T22:02:42.683Z,15.47
2019-02-09T22:05:12.357Z,17.33
2019-02-09T22:07:43.172Z,11.77
2019-02-09T22:10:18.827Z,18.10
2019-02-09T22:12:50.826Z,13.47
2019-02-09T22:15:24.195Z,12.97
2019-02-09T22:17:54.916Z,13.67
2019-02-09T22:20:25.900Z,14.60
2019-02-09T22:22:56.985Z,10.73
2019-02-09T22:25:27.711Z,11.07
2019-02-09T22:27:58.725Z,11.73
2019-02-09T22:30:30.228Z,14.13
2019-02-09T22:33:00.969Z,10.77
2019-02-09T22:35:31.964Z,13.90
2019-02-09T22:38:02.732Z,13.70
2019-02-09T22:40:36.054Z,14.17
2019-02-09T22:43:07.567Z,17.23
2019-02-09T22:45:38.455Z,14.83
2019-02-09T22:48:10.638Z,11.70
2019-02-09T22:50:46.960Z,17.53
2019-02-09T22:53:17.696Z,18.00
2019-02-09T22:55:48.496Z,18.83
2019-02-09T22:58:19.796Z,20.43
2019-02-09T23:01:16.142Z,17.07
2019-02-09T23:04:17.466Z,16.50
2019-02-09T23:07:03.552Z,18.80
2019-02-09T23:09:34.969Z,18.20
2019-02-09T23:12:05.621Z,17.10
2019-02-09T23:14:36.346Z,20.30
2019-02-09T23:17:07.039Z,16.97
2019-02-09T23:19:38.202Z,16.87
2019-02-09T23:22:11.688Z,15.83
2019-02-09T23:24:42.518Z,13.83
2019-02-09T23:27:13.567Z,16.37
2019-02-09T23:29:44.519Z,17.97
2019-02-09T23:32:15.723Z,16.87
2019-02-09T23:34:46.968Z,20.47
2019-02-09T23:37:17.523Z,25.23
2019-02-09T23:39:48.675Z,26.33
2019-02-09T23:42:19.320Z,20.53
2019-02-09T23:44:49.773Z,21.30
2019-02-09T23:47:20.535Z,23.40
2019-02-09T23:49:51.665Z,20.50
2019-02-09T23:52:22.394Z,26.90
2019-02-09T23:54:53.215Z,19.40
2019-02-09T23:57:23.905Z,18.10
2019-02-09T23:59:54.468Z,19.53
